Time;durP1;ratioP1;P1;durP2;ratioP2;P2;SDS_P1;SDS_P2;PMS_P1;PMS_P2;Temp;Humidity;BMP_temperature;BMP_pressure;BME280_temperature;BME280_humidity;BME280_pressure;Samples;Min_cycle;Max_cycle;Signal;HPM_P1;HPM_P2
2022/01/16 00:00:40;;;;;;;50.97;29.23;;;;;;;;;;5023099;28;20386;-57
2022/01/16 00:05:51;;;;;;;61.85;31.17;;;;;;;;;;5020473;28;20029;-57
2022/01/16 00:08:17;;;;;;;57.97;30.38;;;;;;;;;;5023298;28;20030;-56
2022/01/16 00:10:43;;;;;;;54.58;28.42;;;;;;;;;;5014497;28;20451;-58
2022/01/16 00:13:09;;;;;;;38.80;24.40;;;;;;;;;;5013731;28;20502;-57
2022/01/16 00:15:34;;;;;;;49.60;29.60;;;;;;;;;;5023296;28;20030;-57
2022/01/16 00:18:10;;;;;;;42.58;25.98;;;;;;;;;;5022844;28;20033;-57
2022/01/16 00:20:37;;;;;;;51.30;29.63;;;;;;;;;;5026247;28;20061;-56
2022/01/16 00:23:09;;;;;;;49.30;29.00;;;;;;;;;;5021911;28;20037;-58
2022/01/16 00:25:34;;;;;;;42.58;26.08;;;;;;;;;;5025803;28;20066;-57
2022/01/16 00:28:00;;;;;;;43.28;26.30;;;;;;;;;;5024609;28;20037;-55
2022/01/16 00:30:26;;;;;;;46.28;26.48;;;;;;;;;;5022734;28;20037;-56
2022/01/16 00:32:54;;;;;;;42.30;25.77;;;;;;;;;;5021670;28;20386;-57
2022/01/16 00:35:20;;;;;;;44.15;26.60;;;;;;;;;;5019379;28;20049;-58
2022/01/16 00:37:48;;;;;;;44.22;25.98;;;;;;;;;;5019537;28;20038;-57
2022/01/16 00:40:14;;;;;;;40.45;25.05;;;;;;;;;;5023569;28;20083;-57
2022/01/16 00:42:39;;;;;;;42.70;24.98;;;;;;;;;;5017400;28;20643;-56
2022/01/16 00:45:05;;;;;;;40.67;24.83;;;;;;;;;;5023141;28;20414;-57
2022/01/16 00:47:31;;;;;;;43.92;26.13;;;;;;;;;;5024524;28;20030;-57
2022/01/16 00:49:57;;;;;;;40.42;23.83;;;;;;;;;;5020413;28;20395;-57
2022/01/16 00:52:23;;;;;;;40.80;23.33;;;;;;;;;;5026497;28;20104;-58
2022/01/16 00:54:48;;;;;;;40.17;24.58;;;;;;;;;;5022725;28;20025;-58
2022/01/16 00:57:14;;;;;;;55.17;28.25;;;;;;;;;;5024136;28;20274;-58
2022/01/16 00:59:40;;;;;;;42.22;22.90;;;;;;;;;;5021837;28;20041;-58
2022/01/16 01:02:06;;;;;;;37.53;21.30;;;;;;;;;;5023962;28;20037;-57
2022/01/16 01:04:31;;;;;;;37.13;21.90;;;;;;;;;;5021773;28;20052;-57
2022/01/16 01:06:57;;;;;;;40.08;21.63;;;;;;;;;;5024544;28;20046;-52
2022/01/16 01:09:24;;;;;;;39.75;21.77;;;;;;;;;;5024451;28;20360;-52
2022/01/16 01:11:50;;;;;;;34.13;21.58;;;;;;;;;;5024190;28;20045;-51
2022/01/16 01:16:54;;;;;;;32.35;20.27;;;;;;;;;;5023391;28;20046;-56
2022/01/16 01:19:25;;;;;;;43.17;24.92;;;;;;;;;;5024625;28;20046;-54
2022/01/16 01:21:51;;;;;;;38.72;22.58;;;;;;;;;;5026268;28;20803;-54
2022/01/16 01:24:17;;;;;;;34.78;21.50;;;;;;;;;;5022101;28;20478;-54
2022/01/16 01:26:52;;;;;;;43.38;23.73;;;;;;;;;;5026003;28;20026;-58
2022/01/16 01:29:20;;;;;;;42.05;21.48;;;;;;;;;;5023637;28;20061;-52
2022/01/16 01:31:47;;;;;;;39.60;22.63;;;;;;;;;;5025744;28;20029;-54
2022/01/16 01:34:13;;;;;;;41.60;24.10;;;;;;;;;;5022760;28;20030;-52
2022/01/16 01:36:39;;;;;;;45.08;21.98;;;;;;;;;;5022429;28;20125;-53
2022/01/16 01:39:04;;;;;;;43.03;23.17;;;;;;;;;;5022461;28;20443;-53
2022/01/16 01:41:30;;;;;;;33.10;20.73;;;;;;;;;;5024343;28;20030;-55
2022/01/16 01:52:10;;;;;;;36.13;21.55;;;;;;;;;;5024105;28;20144;-52
2022/01/16 01:54:35;;;;;;;35.95;21.33;;;;;;;;;;5017817;28;20033;-52
2022/01/16 01:57:01;;;;;;;37.53;22.17;;;;;;;;;;5020729;28;20462;-53
2022/01/16 01:59:27;;;;;;;41.40;23.90;;;;;;;;;;5023178;28;20029;-53
2022/01/16 02:01:53;;;;;;;36.60;22.58;;;;;;;;;;5015133;28;20041;-52
2022/01/16 02:04:19;;;;;;;36.60;21.75;;;;;;;;;;5022034;28;20057;-55
2022/01/16 02:06:45;;;;;;;35.58;21.58;;;;;;;;;;5026940;28;20367;-54
2022/01/16 02:09:11;;;;;;;34.85;21.23;;;;;;;;;;5023437;28;20032;-54
2022/01/16 02:11:37;;;;;;;35.88;20.80;;;;;;;;;;5023113;28;20025;-51
2022/01/16 02:14:28;;;;;;;31.60;18.50;;;;;;;;;;5026547;28;20851;-54
2022/01/16 02:28:36;;;;;;;41.22;20.70;;;;;;;;;;5019520;28;20108;-52
2022/01/16 02:36:45;;;;;;;36.00;21.20;;;;;;;;;;5020962;28;20034;-52
2022/01/16 02:39:12;;;;;;;33.55;22.02;;;;;;;;;;5020175;28;20512;-53
2022/01/16 02:41:39;;;;;;;30.23;18.85;;;;;;;;;;5025396;28;20041;-54
2022/01/16 02:44:17;;;;;;;26.70;18.55;;;;;;;;;;5024326;28;20038;-55
2022/01/16 02:46:44;;;;;;;27.17;17.73;;;;;;;;;;5021181;28;20029;-52
2022/01/16 02:49:22;;;;;;;33.72;18.27;;;;;;;;;;5024204;28;20048;-50
2022/01/16 02:51:49;;;;;;;29.48;18.60;;;;;;;;;;5017993;28;20014;-55
2022/01/16 02:54:16;;;;;;;32.38;20.33;;;;;;;;;;5019474;28;20026;-55
2022/01/16 02:56:43;;;;;;;33.67;20.27;;;;;;;;;;5025291;28;20104;-53
2022/01/16 02:59:12;;;;;;;33.97;20.70;;;;;;;;;;5017541;28;20048;-56
2022/01/16 03:01:39;;;;;;;33.78;20.40;;;;;;;;;;5018373;28;20038;-52
2022/01/16 03:04:06;;;;;;;35.63;21.55;;;;;;;;;;5026333;28;20471;-53
2022/01/16 03:06:31;;;;;;;36.75;22.00;;;;;;;;;;5019568;28;20030;-52
2022/01/16 03:08:58;;;;;;;36.67;21.70;;;;;;;;;;5024706;28;20047;-54
2022/01/16 03:11:36;;;;;;;36.40;21.67;;;;;;;;;;5020474;28;20408;-52
2022/01/16 03:14:04;;;;;;;36.22;21.63;;;;;;;;;;5025188;28;20041;-54
2022/01/16 03:16:30;;;;;;;35.25;22.23;;;;;;;;;;5023514;28;20061;-55
2022/01/16 03:21:54;;;;;;;34.55;20.92;;;;;;;;;;5023199;28;20084;-52
2022/01/16 03:24:32;;;;;;;33.05;20.27;;;;;;;;;;5020850;28;20033;-53
2022/01/16 03:27:01;;;;;;;36.75;20.08;;;;;;;;;;5024946;28;20025;-55
2022/01/16 03:29:28;;;;;;;34.78;20.13;;;;;;;;;;5021789;28;20041;-55
2022/01/16 03:31:55;;;;;;;35.67;19.83;;;;;;;;;;5023019;28;20521;-56
2022/01/16 03:34:21;;;;;;;30.08;19.98;;;;;;;;;;5024830;28;20036;-55
2022/01/16 03:36:47;;;;;;;30.15;19.48;;;;;;;;;;5015994;28;20030;-55
2022/01/16 03:39:13;;;;;;;33.10;19.55;;;;;;;;;;5027130;28;20026;-54
2022/01/16 03:41:39;;;;;;;32.33;22.23;;;;;;;;;;5025782;28;20037;-53
2022/01/16 03:44:06;;;;;;;27.95;18.92;;;;;;;;;;5025584;28;20582;-51
2022/01/16 03:46:34;;;;;;;28.20;18.75;;;;;;;;;;5023141;28;20547;-52
2022/01/16 03:49:06;;;;;;;29.50;18.77;;;;;;;;;;5020357;28;20466;-51
2022/01/16 03:51:33;;;;;;;35.23;20.90;;;;;;;;;;5018322;28;20030;-55
2022/01/16 03:53:58;;;;;;;35.33;22.33;;;;;;;;;;5024968;28;20033;-53
2022/01/16 03:56:24;;;;;;;35.00;21.70;;;;;;;;;;5019356;28;20026;-57
2022/01/16 03:58:50;;;;;;;49.50;29.30;;;;;;;;;;5015962;28;20080;-54
2022/01/16 04:01:16;;;;;;;36.97;24.33;;;;;;;;;;5025432;28;20080;-54
2022/01/16 04:03:42;;;;;;;40.63;23.75;;;;;;;;;;5025429;28;20051;-54
2022/01/16 04:06:08;;;;;;;33.25;20.85;;;;;;;;;;5021218;28;20490;-57
2022/01/16 04:08:34;;;;;;;38.00;21.85;;;;;;;;;;5023204;28;20029;-57
2022/01/16 04:11:00;;;;;;;33.00;20.83;;;;;;;;;;5019062;28;20125;-57
2022/01/16 04:13:26;;;;;;;34.25;19.58;;;;;;;;;;5017714;28;20049;-55
2022/01/16 04:15:52;;;;;;;31.00;19.10;;;;;;;;;;5017501;28;20099;-54
2022/01/16 04:18:18;;;;;;;27.50;18.27;;;;;;;;;;5020954;28;20479;-55
2022/01/16 04:20:44;;;;;;;25.98;18.02;;;;;;;;;;5025905;28;20041;-54
2022/01/16 04:23:12;;;;;;;31.08;19.00;;;;;;;;;;5022115;28;20057;-54
2022/01/16 04:25:38;;;;;;;34.00;18.55;;;;;;;;;;5027845;28;20429;-54
2022/01/16 04:28:04;;;;;;;31.48;19.13;;;;;;;;;;5021989;28;20037;-56
2022/01/16 04:30:30;;;;;;;40.53;20.27;;;;;;;;;;5024062;28;20083;-50
2022/01/16 04:32:56;;;;;;;30.92;19.88;;;;;;;;;;5021849;28;20026;-52
2022/01/16 04:35:23;;;;;;;33.10;20.67;;;;;;;;;;5021555;28;20040;-55
2022/01/16 04:37:49;;;;;;;32.60;20.40;;;;;;;;;;5021372;28;20030;-52
2022/01/16 04:40:15;;;;;;;32.70;20.63;;;;;;;;;;5025078;28;20041;-53
2022/01/16 04:45:26;;;;;;;30.10;20.35;;;;;;;;;;5020908;28;20026;-55
2022/01/16 04:47:53;;;;;;;32.47;20.55;;;;;;;;;;5017128;28;20719;-55
2022/01/16 04:50:21;;;;;;;30.55;19.85;;;;;;;;;;5020911;28;20034;-54
2022/01/16 04:52:48;;;;;;;33.05;20.33;;;;;;;;;;5017119;28;20053;-53
2022/01/16 04:55:15;;;;;;;31.42;19.10;;;;;;;;;;5022750;28;20590;-56
2022/01/16 04:57:42;;;;;;;32.75;19.55;;;;;;;;;;5022506;28;20034;-55
2022/01/16 05:00:13;;;;;;;31.70;19.20;;;;;;;;;;5015490;28;20053;-56
2022/01/16 05:02:40;;;;;;;29.70;18.42;;;;;;;;;;5019676;28;20052;-54
2022/01/16 05:05:07;;;;;;;32.33;17.65;;;;;;;;;;5023126;28;20045;-56
2022/01/16 05:07:33;;;;;;;28.55;18.08;;;;;;;;;;5023938;28;20665;-56
2022/01/16 05:09:58;;;;;;;31.75;19.80;;;;;;;;;;5022156;28;20159;-55
2022/01/16 05:12:36;;;;;;;29.65;20.02;;;;;;;;;;5019812;28;20032;-54
2022/01/16 05:17:47;;;;;;;30.85;19.77;;;;;;;;;;5025133;28;20041;-53
2022/01/16 05:20:13;;;;;;;31.45;19.63;;;;;;;;;;5017307;28;20046;-52
2022/01/16 05:22:40;;;;;;;35.08;19.33;;;;;;;;;;5018872;28;20475;-55
2022/01/16 05:25:07;;;;;;;28.73;18.65;;;;;;;;;;5020428;28;20037;-53
2022/01/16 05:27:35;;;;;;;31.27;19.63;;;;;;;;;;5018193;28;20025;-57
2022/01/16 05:30:01;;;;;;;31.33;19.35;;;;;;;;;;5024968;28;20112;-54
2022/01/16 05:32:28;;;;;;;32.08;19.17;;;;;;;;;;5023571;28;20029;-53
2022/01/16 05:34:54;;;;;;;30.95;19.40;;;;;;;;;;5028699;28;20025;-52
2022/01/16 05:37:20;;;;;;;32.42;20.15;;;;;;;;;;5021058;28;20061;-52
2022/01/16 05:39:47;;;;;;;30.67;18.67;;;;;;;;;;5023019;28;20033;-58
2022/01/16 05:42:13;;;;;;;31.00;18.80;;;;;;;;;;5025566;28;20022;-54
2022/01/16 05:44:39;;;;;;;27.05;18.15;;;;;;;;;;5018294;28;20022;-55
2022/01/16 05:47:05;;;;;;;28.67;17.83;;;;;;;;;;5021562;28;20572;-52
2022/01/16 05:49:31;;;;;;;29.10;17.45;;;;;;;;;;5022755;28;20057;-57
2022/01/16 05:51:57;;;;;;;26.50;17.10;;;;;;;;;;5025435;28;20030;-58
2022/01/16 05:54:22;;;;;;;28.13;17.77;;;;;;;;;;5028319;28;20030;-56
2022/01/16 05:56:49;;;;;;;26.60;18.05;;;;;;;;;;5027074;28;20021;-53
2022/01/16 05:59:15;;;;;;;29.67;18.00;;;;;;;;;;5020476;28;20029;-57
2022/01/16 06:01:40;;;;;;;30.88;18.60;;;;;;;;;;5018998;28;20025;-58
2022/01/16 06:04:06;;;;;;;26.92;17.05;;;;;;;;;;5029079;28;20026;-53
2022/01/16 06:06:32;;;;;;;27.17;17.67;;;;;;;;;;5024595;28;20439;-54
2022/01/16 06:08:58;;;;;;;26.25;17.25;;;;;;;;;;5022907;28;20085;-54
2022/01/16 06:11:23;;;;;;;27.63;16.60;;;;;;;;;;5018553;28;20490;-58
2022/01/16 06:13:49;;;;;;;25.77;15.80;;;;;;;;;;5021340;28;20415;-57
2022/01/16 06:16:15;;;;;;;27.10;17.55;;;;;;;;;;5026457;28;20026;-57
2022/01/16 06:18:40;;;;;;;29.48;16.58;;;;;;;;;;5018075;28;20438;-52
2022/01/16 06:21:06;;;;;;;34.97;20.00;;;;;;;;;;5025296;28;20057;-54
2022/01/16 06:23:32;;;;;;;35.50;21.17;;;;;;;;;;5026072;28;20108;-53
2022/01/16 06:25:57;;;;;;;35.65;20.88;;;;;;;;;;5025815;28;20041;-58
2022/01/16 06:28:24;;;;;;;32.00;19.75;;;;;;;;;;5026649;28;20060;-57
2022/01/16 06:30:50;;;;;;;30.58;18.88;;;;;;;;;;5029001;28;20464;-55
2022/01/16 06:33:17;;;;;;;27.88;18.15;;;;;;;;;;5024541;28;20049;-55
2022/01/16 06:35:42;;;;;;;32.25;20.88;;;;;;;;;;5028002;28;20037;-56
2022/01/16 06:38:08;;;;;;;31.92;19.83;;;;;;;;;;5022479;28;20536;-53
2022/01/16 06:40:34;;;;;;;32.65;19.73;;;;;;;;;;5028602;28;20394;-53
2022/01/16 06:43:00;;;;;;;29.83;18.33;;;;;;;;;;5019450;28;20442;-57
2022/01/16 06:45:28;;;;;;;29.65;18.45;;;;;;;;;;5021987;28;20116;-54
2022/01/16 06:47:54;;;;;;;32.53;19.13;;;;;;;;;;5020265;28;20113;-55
2022/01/16 06:50:20;;;;;;;26.38;17.48;;;;;;;;;;5024223;28;20498;-58
2022/01/16 06:52:46;;;;;;;28.75;17.50;;;;;;;;;;5025535;28;20111;-58
2022/01/16 06:55:11;;;;;;;29.33;17.33;;;;;;;;;;5025968;28;20092;-58
2022/01/16 06:57:37;;;;;;;31.83;18.05;;;;;;;;;;5025966;28;20449;-57
2022/01/16 07:00:08;;;;;;;27.70;16.55;;;;;;;;;;5028512;28;20037;-56
2022/01/16 07:02:34;;;;;;;28.55;16.88;;;;;;;;;;5026745;28;20025;-55
2022/01/16 07:05:02;;;;;;;25.30;16.52;;;;;;;;;;5023582;28;20045;-54
2022/01/16 07:07:28;;;;;;;24.80;17.17;;;;;;;;;;5021987;28;20112;-58
2022/01/16 07:09:54;;;;;;;26.70;16.88;;;;;;;;;;5022628;28;20537;-58
2022/01/16 07:12:20;;;;;;;29.77;18.27;;;;;;;;;;5021742;28;20091;-57
2022/01/16 07:14:47;;;;;;;25.60;16.67;;;;;;;;;;5023353;28;20096;-52
2022/01/16 07:17:12;;;;;;;26.77;16.20;;;;;;;;;;5023628;28;20516;-55
2022/01/16 07:19:39;;;;;;;25.05;16.33;;;;;;;;;;5021831;28;20034;-57
2022/01/16 07:22:05;;;;;;;25.35;16.63;;;;;;;;;;5023107;28;20095;-57
2022/01/16 07:24:31;;;;;;;31.85;18.85;;;;;;;;;;5023026;28;20502;-55
2022/01/16 07:27:00;;;;;;;34.40;19.13;;;;;;;;;;5023849;28;20037;-56
2022/01/16 07:29:30;;;;;;;28.65;17.83;;;;;;;;;;5024015;28;20561;-53
2022/01/16 07:31:56;;;;;;;29.85;17.77;;;;;;;;;;5018695;28;20044;-57
2022/01/16 07:34:22;;;;;;;25.90;18.10;;;;;;;;;;5024336;28;20034;-56
2022/01/16 07:36:48;;;;;;;32.38;21.58;;;;;;;;;;5024106;28;20025;-57
2022/01/16 07:39:14;;;;;;;34.97;22.67;;;;;;;;;;5020738;28;20034;-53
2022/01/16 07:41:40;;;;;;;45.80;28.55;;;;;;;;;;5021982;28;20060;-56
2022/01/16 07:44:06;;;;;;;33.08;20.45;;;;;;;;;;5022077;28;20146;-59
2022/01/16 07:46:32;;;;;;;35.35;22.45;;;;;;;;;;5019752;28;20040;-58
2022/01/16 07:48:58;;;;;;;29.85;19.27;;;;;;;;;;5019276;28;20044;-54
2022/01/16 07:51:25;;;;;;;27.30;18.02;;;;;;;;;;5017548;28;20037;-57
2022/01/16 07:53:52;;;;;;;26.55;19.55;;;;;;;;;;5019864;28;20167;-58
2022/01/16 07:56:18;;;;;;;40.95;23.08;;;;;;;;;;5021057;28;20033;-57
2022/01/16 07:58:44;;;;;;;39.03;25.25;;;;;;;;;;5022698;28;20116;-58
2022/01/16 08:01:10;;;;;;;33.40;20.70;;;;;;;;;;5020969;28;20091;-58
2022/01/16 08:03:36;;;;;;;33.17;22.08;;;;;;;;;;5019819;28;20376;-55
2022/01/16 08:06:01;;;;;;;36.50;18.98;;;;;;;;;;5016433;28;20109;-55
2022/01/16 08:08:27;;;;;;;25.90;16.77;;;;;;;;;;5019499;28;20052;-57
2022/01/16 08:10:53;;;;;;;28.85;17.40;;;;;;;;;;5018548;28;20037;-58
2022/01/16 08:13:18;;;;;;;22.00;15.18;;;;;;;;;;5018999;28;20082;-57
2022/01/16 08:15:44;;;;;;;26.27;16.73;;;;;;;;;;5018689;28;20064;-58
2022/01/16 08:18:10;;;;;;;22.58;14.77;;;;;;;;;;5019156;28;20072;-55
2022/01/16 08:20:36;;;;;;;22.42;14.68;;;;;;;;;;5020317;28;20140;-57
2022/01/16 08:23:02;;;;;;;29.27;18.58;;;;;;;;;;5020652;28;20041;-55
2022/01/16 08:25:28;;;;;;;35.05;18.30;;;;;;;;;;5020187;28;20069;-58
2022/01/16 08:27:54;;;;;;;41.72;23.67;;;;;;;;;;5016348;28;20473;-56
2022/01/16 08:30:20;;;;;;;34.90;22.70;;;;;;;;;;5013598;28;20033;-56
2022/01/16 08:32:46;;;;;;;65.45;41.28;;;;;;;;;;5016542;28;20025;-58
2022/01/16 08:35:13;;;;;;;54.08;34.97;;;;;;;;;;5019224;28;20040;-57
2022/01/16 08:37:39;;;;;;;40.17;28.00;;;;;;;;;;5018397;28;20029;-58
2022/01/16 08:40:06;;;;;;;41.05;23.40;;;;;;;;;;5016160;28;20037;-57
2022/01/16 08:42:32;;;;;;;42.35;24.15;;;;;;;;;;5021988;28;20095;-57
2022/01/16 08:44:58;;;;;;;35.75;22.98;;;;;;;;;;5019426;28;20030;-53
2022/01/16 08:47:23;;;;;;;38.28;21.58;;;;;;;;;;5017314;28;20033;-57
2022/01/16 08:49:49;;;;;;;40.22;22.45;;;;;;;;;;5020101;28;20033;-58
2022/01/16 08:52:18;;;;;;;38.35;19.92;;;;;;;;;;5021507;28;20080;-57
2022/01/16 08:54:44;;;;;;;35.25;21.27;;;;;;;;;;5017363;28;20110;-57
2022/01/16 08:57:10;;;;;;;33.00;21.17;;;;;;;;;;5023319;28;20041;-57
2022/01/16 08:59:35;;;;;;;44.22;24.35;;;;;;;;;;5018408;28;20034;-57
2022/01/16 09:02:01;;;;;;;48.60;28.33;;;;;;;;;;5018088;28;20041;-58
2022/01/16 09:04:28;;;;;;;45.97;27.73;;;;;;;;;;5021722;28;20069;-59
2022/01/16 09:06:53;;;;;;;41.70;24.92;;;;;;;;;;5023034;28;20072;-58
2022/01/16 09:09:19;;;;;;;45.83;27.52;;;;;;;;;;5024760;28;20026;-56
2022/01/16 09:11:45;;;;;;;50.75;27.20;;;;;;;;;;5024835;28;20079;-59
2022/01/16 09:14:11;;;;;;;45.45;26.42;;;;;;;;;;5016584;28;20136;-58
2022/01/16 09:16:36;;;;;;;36.80;24.95;;;;;;;;;;5021343;28;20025;-58
2022/01/16 09:19:02;;;;;;;37.35;24.67;;;;;;;;;;5024219;28;20425;-57
2022/01/16 09:21:28;;;;;;;38.88;23.88;;;;;;;;;;5022948;28;20104;-59
2022/01/16 09:23:53;;;;;;;38.08;24.90;;;;;;;;;;5025426;28;20606;-56
2022/01/16 09:26:19;;;;;;;36.55;24.02;;;;;;;;;;5027162;28;20037;-57
2022/01/16 09:28:45;;;;;;;36.63;24.70;;;;;;;;;;5029500;28;20026;-56
2022/01/16 09:31:11;;;;;;;45.40;25.95;;;;;;;;;;5022886;28;20554;-58
2022/01/16 09:33:37;;;;;;;44.67;27.05;;;;;;;;;;5023847;28;20495;-56
2022/01/16 09:36:08;;;;;;;47.30;26.40;;;;;;;;;;5027644;28;20034;-55
2022/01/16 09:38:37;;;;;;;43.40;25.92;;;;;;;;;;5024899;28;20040;-54
2022/01/16 09:41:05;;;;;;;47.28;29.35;;;;;;;;;;5022693;28;20449;-54
2022/01/16 09:43:33;;;;;;;46.80;29.42;;;;;;;;;;5024050;28;20041;-53
2022/01/16 09:45:59;;;;;;;47.70;29.52;;;;;;;;;;5024875;28;20052;-56
2022/01/16 09:48:25;;;;;;;51.97;30.30;;;;;;;;;;5026512;28;20029;-56
2022/01/16 09:50:51;;;;;;;47.63;28.38;;;;;;;;;;5025906;28;20095;-57
2022/01/16 09:53:17;;;;;;;44.92;28.48;;;;;;;;;;5027032;28;20033;-58
2022/01/16 09:55:43;;;;;;;47.13;29.65;;;;;;;;;;5030580;28;20032;-52
2022/01/16 09:58:09;;;;;;;46.67;31.35;;;;;;;;;;5023457;28;20099;-56
2022/01/16 10:00:35;;;;;;;48.80;31.25;;;;;;;;;;5025601;28;20060;-59
2022/01/16 10:03:02;;;;;;;47.70;31.00;;;;;;;;;;5025455;28;20039;-57
2022/01/16 10:05:30;;;;;;;45.40;28.58;;;;;;;;;;5019198;28;20026;-54
2022/01/16 10:07:59;;;;;;;45.35;27.73;;;;;;;;;;5014175;28;20040;-56
2022/01/16 10:10:30;;;;;;;41.70;28.23;;;;;;;;;;5025432;28;20025;-54
2022/01/16 10:13:05;;;;;;;43.53;28.50;;;;;;;;;;5026498;28;20584;-52
2022/01/16 10:15:31;;;;;;;43.25;29.50;;;;;;;;;;5023361;28;20038;-53
2022/01/16 10:17:59;;;;;;;52.58;33.53;;;;;;;;;;5025673;28;20029;-55
2022/01/16 10:20:26;;;;;;;48.83;32.10;;;;;;;;;;5028203;28;20412;-53
2022/01/16 10:22:57;;;;;;;60.47;38.05;;;;;;;;;;5027096;28;20052;-53
2022/01/16 10:25:47;;;;;;;73.82;41.17;;;;;;;;;;5029438;28;20033;-55
2022/01/16 10:28:25;;;;;;;83.78;46.45;;;;;;;;;;5025578;28;20055;-55
2022/01/16 10:30:56;;;;;;;80.05;42.90;;;;;;;;;;5024665;28;20029;-56
2022/01/16 10:33:27;;;;;;;85.95;45.75;;;;;;;;;;5020887;28;20030;-55
2022/01/16 10:35:54;;;;;;;71.68;41.55;;;;;;;;;;5028203;28;20073;-53
2022/01/16 10:38:23;;;;;;;64.55;38.67;;;;;;;;;;5020888;28;20033;-52
2022/01/16 10:40:51;;;;;;;72.28;40.22;;;;;;;;;;5019983;28;20057;-58
2022/01/16 10:43:37;;;;;;;69.57;40.88;;;;;;;;;;5024950;28;20566;-53
2022/01/16 10:46:03;;;;;;;76.72;42.13;;;;;;;;;;5027079;28;20176;-57
2022/01/16 10:48:29;;;;;;;72.10;40.40;;;;;;;;;;5021935;28;20112;-53
2022/01/16 10:50:55;;;;;;;67.07;38.03;;;;;;;;;;5027231;28;20120;-55
2022/01/16 10:53:26;;;;;;;63.38;36.72;;;;;;;;;;5021192;28;20095;-54
2022/01/16 10:56:03;;;;;;;58.42;34.55;;;;;;;;;;5021651;28;20066;-53
2022/01/16 10:58:38;;;;;;;65.80;37.03;;;;;;;;;;5028521;28;20029;-53
2022/01/16 11:01:16;;;;;;;54.63;35.45;;;;;;;;;;5022845;28;20102;-52
2022/01/16 11:03:49;;;;;;;65.65;38.53;;;;;;;;;;5020209;28;20037;-57
2022/01/16 11:06:15;;;;;;;;;;;;;;;;;;5023525;28;20086;-54
2022/01/16 11:08:48;;;;;;;64.13;36.60;;;;;;;;;;5020696;28;19987;-52
2022/01/16 11:11:14;;;;;;;63.83;36.28;;;;;;;;;;5025451;28;20029;-51
2022/01/16 11:13:40;;;;;;;64.35;36.63;;;;;;;;;;5024633;28;20355;-52
2022/01/16 11:16:08;;;;;;;65.40;37.97;;;;;;;;;;5023896;28;20049;-57
2022/01/16 11:18:37;;;;;;;59.47;35.28;;;;;;;;;;5022368;28;20483;-56
2022/01/16 11:26:18;;;;;;;55.53;35.72;;;;;;;;;;5026291;28;20061;-53
2022/01/16 11:28:45;;;;;;;58.13;34.85;;;;;;;;;;5023540;28;20429;-53
2022/01/16 11:31:14;;;;;;;65.13;34.88;;;;;;;;;;5022634;28;20079;-57
2022/01/16 11:33:42;;;;;;;53.92;33.38;;;;;;;;;;5016013;28;20041;-53
2022/01/16 11:36:12;;;;;;;65.30;35.08;;;;;;;;;;5018114;28;20030;-58
2022/01/16 11:38:49;;;;;;;52.10;33.03;;;;;;;;;;5021139;28;20087;-57
2022/01/16 11:41:24;;;;;;;48.78;31.88;;;;;;;;;;5018015;28;20052;-54
2022/01/16 11:43:53;;;;;;;51.38;31.35;;;;;;;;;;5022255;28;20043;-57
2022/01/16 11:46:23;;;;;;;50.53;31.45;;;;;;;;;;5021113;28;20471;-53
2022/01/16 11:49:03;;;;;;;47.00;30.65;;;;;;;;;;5022696;28;20040;-53
2022/01/16 11:51:32;;;;;;;45.60;31.20;;;;;;;;;;5016619;28;20124;-51
2022/01/16 11:53:57;;;;;;;43.03;28.05;;;;;;;;;;5018206;28;20034;-52
2022/01/16 11:56:39;;;;;;;48.75;29.75;;;;;;;;;;5017647;28;20441;-55
2022/01/16 11:59:20;;;;;;;44.67;29.63;;;;;;;;;;5020567;28;20522;-55
2022/01/16 12:02:00;;;;;;;49.80;27.52;;;;;;;;;;5021621;28;20482;-54
2022/01/16 12:04:29;;;;;;;42.13;27.40;;;;;;;;;;5021001;28;20033;-53
2022/01/16 12:06:59;;;;;;;48.97;31.10;;;;;;;;;;5021206;28;20426;-55
2022/01/16 12:09:50;;;;;;;47.63;28.10;;;;;;;;;;5021726;28;20034;-54
2022/01/16 12:12:16;;;;;;;46.08;26.70;;;;;;;;;;5024503;28;20060;-56
2022/01/16 12:14:57;;;;;;;42.42;26.65;;;;;;;;;;5014773;28;20037;-57
2022/01/16 12:17:27;;;;;;;37.65;26.27;;;;;;;;;;5014934;28;20104;-54
2022/01/16 12:19:54;;;;;;;44.33;25.45;;;;;;;;;;5015028;28;20605;-55
2022/01/16 12:22:50;;;;;;;37.10;24.50;;;;;;;;;;5011795;28;20049;-56
2022/01/16 12:25:24;;;;;;;32.65;19.08;;;;;;;;;;5012199;28;21999;-56
2022/01/16 12:27:55;;;;;;;21.13;14.07;;;;;;;;;;5013350;28;20039;-56
2022/01/16 12:30:32;;;;;;;21.58;13.30;;;;;;;;;;5010786;28;20043;-56
2022/01/16 12:33:08;;;;;;;22.70;13.82;;;;;;;;;;5011468;28;20044;-56
2022/01/16 12:35:54;;;;;;;21.13;13.50;;;;;;;;;;5016447;28;20560;-57
2022/01/16 12:38:26;;;;;;;20.23;13.13;;;;;;;;;;5013131;28;20097;-55
2022/01/16 12:40:58;;;;;;;23.83;12.83;;;;;;;;;;5014256;28;20034;-56
2022/01/16 12:43:30;;;;;;;19.53;12.90;;;;;;;;;;5017661;28;20041;-56
2022/01/16 12:45:58;;;;;;;22.38;12.57;;;;;;;;;;5013622;28;20282;-55
2022/01/16 12:48:24;;;;;;;17.88;12.18;;;;;;;;;;5022161;28;20561;-57
2022/01/16 12:51:02;;;;;;;19.92;12.18;;;;;;;;;;5014267;28;20549;-58
2022/01/16 12:53:41;;;;;;;20.95;13.30;;;;;;;;;;5018016;28;20084;-55
2022/01/16 12:56:42;;;;;;;18.45;12.02;;;;;;;;;;5017873;28;20065;-58
2022/01/16 12:59:18;;;;;;;19.88;12.27;;;;;;;;;;5019731;28;20759;-56
2022/01/16 13:01:49;;;;;;;18.17;11.63;;;;;;;;;;5018493;28;20398;-58
2022/01/16 13:04:22;;;;;;;19.08;11.88;;;;;;;;;;5014653;28;20022;-53
2022/01/16 13:06:48;;;;;;;16.15;10.50;;;;;;;;;;5020358;28;20060;-59
2022/01/16 13:09:15;;;;;;;20.88;11.15;;;;;;;;;;5018048;28;20053;-58
2022/01/16 13:11:46;;;;;;;20.02;11.48;;;;;;;;;;5023432;28;20053;-58
2022/01/16 13:14:18;;;;;;;15.60;11.02;;;;;;;;;;5022386;28;20029;-58
2022/01/16 13:16:48;;;;;;;18.75;11.00;;;;;;;;;;5014159;28;20041;-55
2022/01/16 13:22:29;;;;;;;18.88;11.88;;;;;;;;;;5022262;28;20513;-58
2022/01/16 13:25:03;;;;;;;19.38;12.30;;;;;;;;;;5014363;28;20044;-57
2022/01/16 13:27:34;;;;;;;17.52;11.98;;;;;;;;;;5019966;28;20065;-58
2022/01/16 13:29:59;;;;;;;17.85;11.63;;;;;;;;;;5016975;28;20120;-58
2022/01/16 13:32:37;;;;;;;18.05;11.13;;;;;;;;;;5018275;28;20038;-58
2022/01/16 13:35:18;;;;;;;20.92;12.18;;;;;;;;;;5017107;28;20025;-58
2022/01/16 13:37:45;;;;;;;17.67;10.93;;;;;;;;;;5015877;28;20041;-58
2022/01/16 13:40:15;;;;;;;12.82;9.82;;;;;;;;;;5015515;28;20030;-58
2022/01/16 13:45:31;;;;;;;17.83;10.75;;;;;;;;;;5017697;28;20486;-57
2022/01/16 13:48:03;;;;;;;15.77;9.70;;;;;;;;;;5021883;28;20053;-58
2022/01/16 13:50:38;;;;;;;19.08;10.32;;;;;;;;;;5017809;28;20087;-57
2022/01/16 13:53:07;;;;;;;14.32;9.60;;;;;;;;;;5019649;28;20034;-57
2022/01/16 13:55:46;;;;;;;12.43;8.95;;;;;;;;;;5024193;28;20085;-56
2022/01/16 13:58:14;;;;;;;14.35;9.57;;;;;;;;;;5028407;28;20371;-53
2022/01/16 14:00:40;;;;;;;13.02;9.38;;;;;;;;;;5020114;28;20079;-55
2022/01/16 14:03:16;;;;;;;12.15;9.00;;;;;;;;;;5021015;28;20037;-57
2022/01/16 14:05:44;;;;;;;15.18;9.20;;;;;;;;;;5018421;28;20225;-57
2022/01/16 14:08:29;;;;;;;13.23;9.27;;;;;;;;;;5016386;28;20101;-56
2022/01/16 14:11:13;;;;;;;11.50;8.70;;;;;;;;;;5018951;28;20132;-57
2022/01/16 14:13:47;;;;;;;17.13;10.65;;;;;;;;;;5024460;28;20034;-55
2022/01/16 14:16:13;;;;;;;13.38;8.70;;;;;;;;;;5021148;28;20029;-57
2022/01/16 14:19:04;;;;;;;13.10;9.20;;;;;;;;;;5019496;28;20058;-57
2022/01/16 14:24:07;;;;;;;13.50;7.20;;;;;;;;;;5024857;28;20037;-57
2022/01/16 14:26:44;;;;;;;14.63;8.50;;;;;;;;;;5022305;28;20053;-55
2022/01/16 14:29:13;;;;;;;10.02;7.53;;;;;;;;;;5052715;28;20037;-57
2022/01/16 14:31:39;;;;;;;19.25;7.45;;;;;;;;;;5025964;28;20429;-54
2022/01/16 14:34:05;;;;;;;12.18;6.93;;;;;;;;;;5022304;28;20033;-57
2022/01/16 14:36:30;;;;;;;11.23;8.02;;;;;;;;;;5018843;28;20445;-54
2022/01/16 14:38:56;;;;;;;13.27;7.50;;;;;;;;;;5022456;28;20026;-53
2022/01/16 14:41:23;;;;;;;11.05;7.50;;;;;;;;;;5025188;28;20037;-55
2022/01/16 14:43:54;;;;;;;8.40;6.50;;;;;;;;;;5027816;28;20054;-59
2022/01/16 14:46:21;;;;;;;12.75;6.72;;;;;;;;;;5028265;28;20068;-54
2022/01/16 14:48:47;;;;;;;12.63;6.90;;;;;;;;;;5021898;28;20478;-56
2022/01/16 14:51:14;;;;;;;10.77;7.07;;;;;;;;;;5021990;28;20075;-58
2022/01/16 14:53:40;;;;;;;8.93;6.38;;;;;;;;;;5023306;28;20050;-55
2022/01/16 14:56:06;;;;;;;12.75;7.00;;;;;;;;;;5021636;28;20034;-56
2022/01/16 14:58:32;;;;;;;9.57;6.03;;;;;;;;;;5026702;28;20410;-57
2022/01/16 15:00:57;;;;;;;18.15;8.43;;;;;;;;;;5020712;28;20481;-57
2022/01/16 15:03:23;;;;;;;19.13;8.68;;;;;;;;;;5020574;28;20683;-56
2022/01/16 15:05:49;;;;;;;11.35;6.75;;;;;;;;;;5018819;28;20033;-56
2022/01/16 15:08:15;;;;;;;10.10;6.88;;;;;;;;;;5021903;28;20382;-56
2022/01/16 15:10:41;;;;;;;35.13;13.48;;;;;;;;;;5020553;28;20068;-57
2022/01/16 15:13:07;;;;;;;10.68;6.13;;;;;;;;;;5025031;28;20100;-57
2022/01/16 15:15:32;;;;;;;6.72;4.57;;;;;;;;;;5024475;28;20420;-53
2022/01/16 15:17:59;;;;;;;12.00;5.03;;;;;;;;;;5020852;28;20045;-53